createdAt,value
2022-10-29T00:02:22.698Z,10.17
2022-10-29T00:04:49.567Z,9.83
2022-10-29T00:07:16.389Z,10.17
2022-10-29T00:09:47.457Z,10.33
2022-10-29T00:12:14.233Z,9.83
2022-10-29T00:14:43.590Z,10.10
2022-10-29T00:17:15.972Z,9.03
2022-10-29T00:19:42.755Z,9.70
2022-10-29T00:22:11.664Z,9.07
2022-10-29T00:24:38.470Z,10.07
2022-10-29T00:27:05.289Z,9.97
2022-10-29T00:29:32.457Z,9.27
2022-10-29T00:31:59.287Z,9.30
2022-10-29T00:34:26.112Z,10.20
2022-10-29T00:36:52.885Z,9.50
2022-10-29T00:39:21.938Z,9.60
2022-10-29T00:41:48.672Z,9.50
2022-10-29T00:44:15.478Z,10.33
2022-10-29T00:47:02.712Z,9.43
2022-10-29T00:49:31.053Z,9.40
2022-10-29T00:51:59.346Z,10.17
2022-10-29T00:54:28.482Z,9.90
2022-10-29T00:56:59.309Z,10.57
2022-10-29T00:59:28.596Z,9.57
2022-10-29T01:01:56.365Z,8.97
2022-10-29T01:04:25.557Z,9.47
2022-10-29T01:06:52.540Z,8.87
2022-10-29T01:09:19.306Z,8.90
2022-10-29T01:12:17.828Z,9.47
2022-10-29T01:15:02.709Z,8.50
2022-10-29T01:17:35.206Z,9.40
2022-10-29T01:20:20.614Z,8.83
2022-10-29T01:23:03.627Z,9.00
2022-10-29T01:25:45.862Z,8.97
2022-10-29T01:28:46.803Z,8.23
2022-10-29T01:31:34.101Z,8.73
2022-10-29T01:34:05.081Z,8.90
2022-10-29T01:36:54.214Z,8.63
2022-10-29T01:39:24.260Z,8.77
2022-10-29T01:41:52.574Z,9.53
2022-10-29T01:44:30.674Z,9.00
2022-10-29T01:47:07.334Z,8.80
2022-10-29T01:49:44.704Z,8.80
2022-10-29T01:52:15.712Z,8.63
2022-10-29T01:54:45.609Z,8.10
2022-10-29T01:57:37.829Z,8.73
2022-10-29T02:00:08.049Z,8.70
2022-10-29T02:02:34.799Z,8.20
2022-10-29T02:05:35.545Z,8.80
2022-10-29T02:08:34.454Z,8.03
2022-10-29T02:11:09.727Z,9.03
2022-10-29T02:13:41.850Z,8.57
2022-10-29T02:16:08.627Z,8.70
2022-10-29T02:18:46.053Z,8.73
2022-10-29T02:21:18.384Z,8.40
2022-10-29T02:23:45.190Z,8.90
2022-10-29T02:26:12.055Z,8.20
2022-10-29T02:28:38.865Z,8.23
2022-10-29T02:31:08.078Z,8.17
2022-10-29T02:33:37.385Z,8.90
2022-10-29T02:36:04.499Z,8.43
2022-10-29T02:38:33.842Z,8.23
2022-10-29T02:41:00.608Z,8.90
2022-10-29T02:43:27.349Z,7.83
2022-10-29T02:46:15.212Z,8.43
2022-10-29T02:48:42.407Z,8.83
2022-10-29T02:51:09.391Z,8.53
2022-10-29T02:53:36.255Z,8.10
2022-10-29T02:56:06.460Z,7.97
2022-10-29T02:58:35.453Z,7.87
2022-10-29T03:01:04.560Z,8.70
2022-10-29T03:03:33.444Z,8.20
2022-10-29T03:06:02.333Z,8.83
2022-10-29T03:08:29.193Z,7.90
2022-10-29T03:10:56.061Z,7.37
2022-10-29T03:13:22.982Z,8.30
2022-10-29T03:15:49.745Z,8.50
2022-10-29T03:18:16.572Z,7.20
2022-10-29T03:20:43.490Z,8.27
2022-10-29T03:23:10.205Z,8.07
2022-10-29T03:25:36.939Z,8.30
2022-10-29T03:28:03.744Z,7.70
2022-10-29T03:30:30.485Z,7.10
2022-10-29T03:32:57.676Z,7.77
2022-10-29T03:35:24.630Z,7.60
2022-10-29T03:37:58.322Z,7.87
2022-10-29T03:40:27.511Z,7.20
2022-10-29T03:42:57.148Z,8.40
2022-10-29T03:45:24.136Z,7.93
2022-10-29T03:47:50.875Z,7.93
2022-10-29T03:50:17.741Z,7.60
2022-10-29T03:52:46.725Z,7.80
2022-10-29T03:55:18.116Z,7.67
2022-10-29T03:57:44.834Z,7.70
2022-10-29T04:00:17.489Z,7.50
2022-10-29T04:02:46.778Z,7.40
2022-10-29T04:05:13.613Z,7.47
2022-10-29T04:07:42.799Z,7.47
2022-10-29T04:10:09.714Z,7.80
2022-10-29T04:12:36.505Z,8.10
2022-10-29T04:15:05.908Z,7.53
2022-10-29T04:17:32.721Z,7.00
2022-10-29T04:19:59.484Z,7.23
2022-10-29T04:30:51.583Z,7.57
2022-10-29T04:33:18.487Z,7.23
2022-10-29T04:35:45.345Z,7.63
2022-10-29T04:38:12.392Z,6.90
2022-10-29T04:40:39.187Z,7.10
2022-10-29T04:43:08.448Z,7.50
2022-10-29T04:45:35.302Z,7.53
2022-10-29T04:48:07.632Z,6.97
2022-10-29T04:50:34.648Z,7.83
2022-10-29T04:53:04.168Z,7.70
2022-10-29T04:55:31.212Z,7.33
2022-10-29T04:57:58.383Z,7.00
2022-10-29T05:00:25.400Z,7.33
2022-10-29T05:02:52.567Z,9.03
2022-10-29T05:05:20.181Z,7.27
2022-10-29T05:07:47.085Z,6.73
2022-10-29T05:10:18.962Z,6.90
2022-10-29T05:12:48.256Z,6.80
2022-10-29T05:15:19.939Z,6.60
2022-10-29T05:17:48.977Z,7.50
2022-10-29T05:20:15.834Z,7.63
2022-10-29T05:22:47.295Z,7.10
2022-10-29T05:25:14.151Z,7.20
2022-10-29T05:27:40.945Z,7.40
2022-10-29T05:30:08.195Z,6.27
2022-10-29T05:35:02.725Z,6.80
2022-10-29T05:37:29.478Z,6.23
2022-10-29T05:40:00.559Z,5.90
2022-10-29T05:42:29.478Z,6.27
2022-10-29T05:44:58.775Z,6.13
2022-10-29T05:47:25.495Z,6.23
2022-10-29T05:49:52.284Z,6.63
2022-10-29T05:52:19.027Z,5.87
2022-10-29T05:54:45.794Z,5.97
2022-10-29T05:57:12.535Z,6.20
2022-10-29T05:59:39.314Z,6.37
2022-10-29T06:02:06.217Z,6.07
2022-10-29T06:04:34.438Z,5.83
2022-10-29T06:07:03.730Z,6.73
2022-10-29T06:09:30.480Z,6.57
2022-10-29T06:11:57.379Z,6.10
2022-10-29T06:14:24.156Z,5.60
2022-10-29T06:16:50.902Z,6.17
2022-10-29T06:19:17.673Z,5.83
2022-10-29T06:21:47.296Z,6.23
2022-10-29T06:24:14.064Z,6.00
2022-10-29T06:26:41.161Z,5.93
2022-10-29T06:29:07.908Z,6.07
2022-10-29T06:31:34.668Z,6.37
2022-10-29T06:34:01.526Z,6.10
2022-10-29T06:36:28.343Z,6.03
2022-10-29T06:38:55.063Z,6.13
2022-10-29T06:41:25.213Z,6.00
2022-10-29T06:43:52.084Z,6.57
2022-10-29T06:46:19.076Z,6.37
2022-10-29T06:48:48.073Z,6.40
2022-10-29T06:51:14.910Z,6.17
2022-10-29T06:53:43.948Z,6.33
2022-10-29T06:56:10.695Z,6.13
2022-10-29T06:58:37.419Z,6.67
2022-10-29T07:01:04.685Z,6.37
2022-10-29T07:03:31.448Z,6.67
2022-10-29T07:05:59.396Z,6.70
2022-10-29T07:08:26.408Z,6.17
2022-10-29T07:10:53.602Z,6.00
2022-10-29T07:13:20.363Z,6.33
2022-10-29T07:15:47.080Z,6.50
2022-10-29T07:18:16.150Z,6.40
2022-10-29T07:20:44.421Z,6.50
2022-10-29T07:23:11.831Z,6.37
2022-10-29T07:25:39.008Z,6.80
2022-10-29T07:28:17.506Z,6.40
2022-10-29T07:30:48.373Z,6.83
2022-10-29T07:33:15.591Z,6.27
2022-10-29T07:35:42.639Z,6.73
2022-10-29T07:38:11.302Z,6.73
2022-10-29T07:40:47.709Z,6.67
2022-10-29T07:43:14.658Z,6.63
2022-10-29T07:45:43.024Z,7.47
2022-10-29T07:48:10.257Z,6.60
2022-10-29T07:50:40.387Z,6.70
2022-10-29T07:53:07.349Z,6.70
2022-10-29T07:55:39.676Z,6.77
2022-10-29T07:58:08.062Z,6.80
2022-10-29T08:00:36.623Z,7.27
2022-10-29T08:03:03.866Z,7.13
2022-10-29T08:05:33.224Z,6.17
2022-10-29T08:08:00.449Z,7.50
2022-10-29T08:10:32.617Z,7.33
2022-10-29T08:13:01.133Z,7.47
2022-10-29T08:15:30.145Z,7.03
2022-10-29T08:17:59.182Z,7.30
2022-10-29T08:20:26.936Z,7.40
2022-10-29T08:22:54.068Z,7.20
2022-10-29T08:25:21.256Z,8.33
2022-10-29T08:28:03.737Z,7.43
2022-10-29T08:30:30.983Z,7.57
2022-10-29T08:32:58.432Z,7.20
2022-10-29T08:35:25.586Z,7.10
2022-10-29T08:37:54.580Z,7.10
2022-10-29T08:40:39.324Z,6.50
2022-10-29T08:43:44.606Z,7.00
2022-10-29T08:47:11.165Z,7.33
2022-10-29T08:49:44.910Z,6.90
2022-10-29T08:52:20.311Z,7.97
2022-10-29T08:55:14.099Z,8.20
2022-10-29T08:57:58.358Z,7.23
2022-10-29T09:00:33.041Z,8.47
2022-10-29T09:03:02.376Z,7.73
2022-10-29T09:05:36.592Z,7.37
2022-10-29T09:08:38.046Z,7.40
2022-10-29T09:11:32.456Z,7.57
2022-10-29T09:14:06.384Z,7.80
2022-10-29T09:16:43.524Z,8.07
2022-10-29T09:19:18.919Z,8.57
2022-10-29T09:22:11.478Z,8.47
2022-10-29T09:25:10.928Z,8.77
2022-10-29T09:27:52.983Z,9.40
2022-10-29T09:30:20.318Z,8.50
2022-10-29T09:33:15.191Z,8.70
2022-10-29T09:35:49.694Z,8.33
2022-10-29T09:38:19.014Z,8.73
2022-10-29T09:40:46.123Z,9.47
2022-10-29T09:43:18.207Z,10.10
2022-10-29T09:45:50.581Z,9.97
2022-10-29T09:48:51.742Z,9.97
2022-10-29T09:51:37.157Z,9.60
2022-10-29T09:54:04.267Z,9.27
2022-10-29T09:56:31.000Z,10.47
2022-10-29T09:59:22.195Z,9.70
2022-10-29T10:01:51.338Z,9.47
2022-10-29T10:04:30.166Z,9.50
2022-10-29T10:07:03.113Z,11.07
2022-10-29T10:09:29.867Z,10.37
2022-10-29T10:11:59.187Z,10.77
2022-10-29T10:14:31.272Z,11.27
2022-10-29T10:16:58.611Z,12.53
2022-10-29T10:19:27.084Z,12.27
2022-10-29T10:21:58.684Z,12.80
2022-10-29T10:24:36.192Z,12.93
2022-10-29T10:27:33.821Z,12.63
2022-10-29T10:30:05.829Z,13.93
2022-10-29T10:32:32.574Z,13.07
2022-10-29T10:34:59.361Z,14.83
2022-10-29T10:37:26.173Z,15.07
2022-10-29T10:40:03.327Z,15.33
2022-10-29T10:42:37.156Z,15.90
2022-10-29T10:45:15.598Z,15.67
2022-10-29T10:47:44.344Z,17.73
2022-10-29T10:50:20.869Z,16.47
2022-10-29T10:52:49.048Z,16.63
2022-10-29T10:55:24.928Z,17.50
2022-10-29T10:58:33.450Z,16.80
2022-10-29T11:01:23.285Z,16.63
2022-10-29T11:04:21.539Z,17.23
2022-10-29T11:06:49.853Z,15.97
2022-10-29T11:09:28.316Z,15.10
2022-10-29T11:12:11.423Z,16.03
2022-10-29T11:14:42.971Z,14.80
2022-10-29T11:17:27.100Z,16.17
2022-10-29T11:19:56.328Z,15.43
2022-10-29T11:22:30.856Z,14.33
2022-10-29T11:24:59.494Z,14.97
2022-10-29T11:27:48.012Z,15.57
2022-10-29T11:30:20.577Z,15.97
2022-10-29T11:33:00.797Z,14.00
2022-10-29T11:35:36.173Z,15.37
2022-10-29T11:38:14.392Z,13.90
2022-10-29T11:40:55.162Z,13.70
2022-10-29T11:43:21.969Z,13.03
2022-10-29T11:46:02.243Z,13.27
2022-10-29T11:48:40.545Z,12.97
2022-10-29T11:51:55.339Z,12.23
2022-10-29T11:54:37.579Z,13.17
2022-10-29T11:57:04.348Z,12.87
2022-10-29T11:59:52.118Z,13.07
2022-10-29T12:02:43.924Z,13.70
2022-10-29T12:05:12.802Z,11.87
2022-10-29T12:07:50.105Z,12.70
2022-10-29T12:10:41.783Z,12.30
2022-10-29T12:13:29.996Z,11.73
2022-10-29T12:16:20.860Z,11.60
2022-10-29T12:19:06.824Z,12.33
2022-10-29T12:21:42.519Z,10.50
2022-10-29T12:24:21.247Z,10.63
2022-10-29T12:26:52.911Z,10.67
2022-10-29T12:29:27.329Z,11.90
2022-10-29T12:32:13.829Z,11.53
2022-10-29T12:34:52.597Z,11.30
2022-10-29T12:37:39.628Z,10.23
2022-10-29T12:40:19.928Z,10.67
2022-10-29T12:42:47.560Z,10.77
2022-10-29T12:45:36.877Z,10.17
2022-10-29T12:48:17.425Z,9.97
2022-10-29T12:51:12.318Z,9.53
2022-10-29T12:53:49.810Z,9.37
2022-10-29T12:56:18.739Z,9.97
2022-10-29T12:58:48.876Z,9.03
2022-10-29T13:01:57.376Z,9.30
2022-10-29T13:04:26.356Z,9.07
2022-10-29T13:07:04.121Z,7.90
2022-10-29T13:09:44.258Z,10.43
2022-10-29T13:12:33.852Z,8.17
2022-10-29T13:15:05.904Z,8.60
2022-10-29T13:17:37.113Z,8.63
2022-10-29T13:20:25.393Z,8.67
2022-10-29T13:22:59.916Z,7.77
2022-10-29T13:25:40.368Z,7.50
2022-10-29T13:28:09.968Z,7.63
2022-10-29T13:30:37.100Z,7.67
2022-10-29T13:33:24.459Z,7.80
2022-10-29T13:36:03.770Z,7.20
2022-10-29T13:39:06.019Z,6.67
2022-10-29T13:41:43.640Z,6.80
2022-10-29T13:44:11.199Z,7.07
2022-10-29T13:46:49.857Z,6.40
2022-10-29T13:49:23.039Z,6.43
2022-10-29T13:51:51.308Z,6.43
2022-10-29T13:54:49.665Z,5.80
2022-10-29T13:57:19.348Z,6.30
2022-10-29T13:59:50.868Z,6.43
2022-10-29T14:02:23.851Z,6.63
2022-10-29T14:04:52.854Z,6.17
2022-10-29T14:07:23.337Z,7.57
2022-10-29T14:09:55.393Z,7.13
2022-10-29T14:12:25.121Z,7.30
2022-10-29T14:14:55.157Z,6.77
2022-10-29T14:17:21.905Z,7.30
2022-10-29T14:19:51.698Z,7.27
2022-10-29T14:22:35.634Z,7.97
2022-10-29T14:25:04.735Z,7.27
2022-10-29T14:27:31.499Z,7.70
2022-10-29T14:30:14.390Z,7.80
2022-10-29T14:32:41.314Z,7.00
2022-10-29T14:35:08.465Z,7.53
2022-10-29T14:37:39.907Z,7.53
2022-10-29T14:40:21.510Z,7.50
2022-10-29T14:42:58.162Z,7.60
2022-10-29T14:45:28.446Z,6.90
2022-10-29T14:47:59.626Z,7.63
2022-10-29T14:50:29.763Z,8.00
2022-10-29T14:53:01.689Z,8.17
2022-10-29T14:55:31.991Z,8.63
2022-10-29T14:58:03.351Z,8.57
2022-10-29T15:00:31.711Z,7.77
2022-10-29T15:02:58.953Z,9.00
2022-10-29T15:05:29.885Z,7.70
2022-10-29T15:08:12.090Z,8.33
2022-10-29T15:10:53.625Z,9.03
2022-10-29T15:13:33.282Z,9.10
2022-10-29T15:16:05.186Z,8.43
2022-10-29T15:18:32.649Z,8.50
2022-10-29T15:21:01.492Z,9.77
2022-10-29T15:23:44.287Z,9.80
2022-10-29T15:26:22.870Z,9.50
2022-10-29T15:28:53.560Z,9.40
2022-10-29T15:31:45.078Z,9.57
2022-10-29T15:34:40.458Z,9.73
2022-10-29T15:37:19.452Z,9.73
2022-10-29T15:40:13.557Z,9.83
2022-10-29T15:42:42.513Z,9.90
2022-10-29T15:47:41.077Z,10.80
2022-10-29T15:50:11.044Z,10.60
2022-10-29T15:52:48.606Z,10.03
2022-10-29T15:55:26.868Z,9.87
2022-10-29T15:57:59.566Z,10.27
2022-10-29T16:00:28.883Z,10.27
2022-10-29T16:02:58.637Z,10.03
2022-10-29T16:05:27.947Z,10.33
2022-10-29T16:07:54.852Z,10.67
2022-10-29T16:10:21.677Z,11.47
2022-10-29T16:12:49.275Z,10.27
2022-10-29T16:15:18.157Z,10.43
2022-10-29T16:17:47.550Z,10.33
2022-10-29T16:20:19.003Z,11.57
2022-10-29T16:22:46.603Z,10.53
2022-10-29T16:25:25.026Z,11.33
2022-10-29T16:27:51.856Z,11.03
2022-10-29T16:30:19.199Z,10.80
2022-10-29T16:32:49.859Z,10.50
2022-10-29T16:35:22.635Z,11.70
2022-10-29T16:37:49.850Z,11.67
2022-10-29T16:40:20.040Z,11.93
2022-10-29T16:42:46.991Z,10.90
2022-10-29T16:45:18.870Z,11.63
2022-10-29T16:47:48.320Z,11.20
2022-10-29T16:50:20.734Z,12.30
2022-10-29T16:52:47.663Z,13.30
2022-10-29T16:55:14.664Z,12.60
2022-10-29T16:57:43.926Z,12.00
2022-10-29T17:00:11.261Z,13.77
2022-10-29T17:02:38.324Z,12.50
2022-10-29T17:05:05.566Z,13.47
2022-10-29T17:07:32.371Z,12.40
2022-10-29T17:09:59.174Z,12.97
2022-10-29T17:12:26.001Z,12.43
2022-10-29T17:14:55.219Z,14.30
2022-10-29T17:17:22.019Z,12.67
2022-10-29T17:19:48.774Z,13.67
2022-10-29T17:22:16.234Z,13.43
2022-10-29T17:24:43.614Z,13.00
2022-10-29T17:27:13.543Z,12.87
2022-10-29T17:29:40.329Z,12.23
2022-10-29T17:32:09.567Z,12.53
2022-10-29T17:34:38.552Z,12.17
2022-10-29T17:37:05.356Z,14.17
2022-10-29T17:39:32.337Z,11.87
2022-10-29T17:41:59.223Z,13.70
2022-10-29T17:44:27.508Z,12.87
2022-10-29T17:46:56.768Z,12.40
2022-10-29T17:49:26.328Z,12.37
2022-10-29T17:51:53.189Z,13.40
2022-10-29T17:54:22.514Z,12.57
2022-10-29T17:56:49.363Z,12.40
2022-10-29T17:59:16.386Z,12.67
2022-10-29T18:01:44.710Z,12.73
2022-10-29T18:04:11.797Z,13.20
2022-10-29T18:06:41.050Z,13.63
2022-10-29T18:09:10.324Z,13.53
2022-10-29T18:11:39.878Z,14.37
2022-10-29T18:14:06.755Z,15.20
2022-10-29T18:16:33.593Z,13.27
2022-10-29T18:19:02.804Z,13.63
2022-10-29T18:21:32.502Z,13.27
2022-10-29T18:23:59.328Z,14.00
2022-10-29T18:26:32.706Z,13.80
2022-10-29T18:29:00.708Z,15.60
2022-10-29T18:31:30.412Z,14.60
2022-10-29T18:33:58.278Z,14.90
2022-10-29T18:36:25.038Z,14.37
2022-10-29T18:38:52.793Z,15.73
2022-10-29T18:41:21.812Z,18.50
2022-10-29T18:43:51.114Z,17.17
2022-10-29T18:46:20.417Z,18.10
2022-10-29T18:48:49.844Z,17.80
2022-10-29T18:51:24.567Z,16.43
2022-10-29T18:53:51.997Z,16.23
2022-10-29T18:56:19.605Z,17.07
2022-10-29T18:58:46.554Z,16.50
2022-10-29T19:01:23.217Z,17.20
2022-10-29T19:03:57.448Z,17.47
2022-10-29T19:06:28.122Z,17.80
2022-10-29T19:08:55.023Z,16.70
2022-10-29T19:11:25.642Z,15.90
2022-10-29T19:13:53.105Z,16.27
2022-10-29T19:16:20.084Z,17.43
2022-10-29T19:18:47.111Z,16.00
2022-10-29T19:21:14.751Z,16.57
2022-10-29T19:23:41.722Z,17.37
2022-10-29T19:26:10.078Z,17.93
2022-10-29T19:28:36.929Z,17.67
2022-10-29T19:31:14.011Z,15.83
2022-10-29T19:33:46.878Z,14.27
2022-10-29T19:36:13.662Z,15.93
2022-10-29T19:38:40.405Z,14.00
2022-10-29T19:41:07.249Z,14.37
2022-10-29T19:43:33.994Z,14.07
2022-10-29T19:46:03.327Z,14.70
2022-10-29T19:48:30.091Z,15.60
2022-10-29T19:50:56.841Z,14.77
2022-10-29T19:53:25.992Z,14.83
2022-10-29T19:55:53.910Z,15.73
2022-10-29T19:58:22.805Z,15.47
2022-10-29T20:00:49.830Z,15.17
2022-10-29T20:03:17.103Z,15.00
2022-10-29T20:05:48.874Z,14.00
2022-10-29T20:08:16.445Z,13.43
2022-10-29T20:10:43.610Z,12.40
2022-10-29T20:13:10.501Z,13.23
2022-10-29T20:15:41.490Z,13.03
2022-10-29T20:18:10.452Z,13.00
2022-10-29T20:20:37.225Z,12.90
2022-10-29T20:23:03.962Z,13.83
2022-10-29T20:25:33.347Z,13.77
2022-10-29T20:28:01.877Z,19.53
2022-10-29T20:30:29.258Z,23.17
2022-10-29T20:32:56.439Z,31.90
2022-10-29T20:35:23.467Z,37.07
2022-10-29T20:37:50.293Z,35.50
2022-10-29T20:40:17.081Z,35.43
2022-10-29T20:42:44.084Z,30.73
2022-10-29T20:45:10.937Z,30.37
2022-10-29T20:47:40.161Z,27.73
2022-10-29T20:50:09.603Z,24.60
2022-10-29T20:52:36.397Z,26.23
2022-10-29T20:55:03.328Z,23.33
2022-10-29T20:57:32.748Z,21.87
2022-10-29T20:59:59.597Z,20.63
2022-10-29T21:02:26.568Z,19.40
2022-10-29T21:04:53.438Z,20.60
2022-10-29T21:07:20.283Z,19.77
2022-10-29T21:09:47.781Z,18.60
2022-10-29T21:12:14.739Z,18.43
2022-10-29T21:14:41.469Z,18.00
2022-10-29T21:17:11.199Z,20.00
2022-10-29T21:19:37.966Z,18.37
2022-10-29T21:22:04.855Z,19.23
2022-10-29T21:24:33.728Z,18.53
2022-10-29T21:27:02.676Z,19.40
2022-10-29T21:29:29.453Z,20.57
2022-10-29T21:31:56.189Z,22.47
2022-10-29T21:34:23.037Z,22.63
2022-10-29T21:36:50.095Z,20.87
2022-10-29T21:39:19.066Z,24.30
2022-10-29T21:41:50.850Z,23.80
2022-10-29T21:44:18.079Z,23.70
2022-10-29T21:46:44.812Z,25.27
2022-10-29T21:49:11.541Z,23.47
2022-10-29T21:51:38.330Z,23.83
2022-10-29T21:54:09.755Z,24.00
2022-10-29T21:56:38.810Z,25.03
2022-10-29T21:59:05.626Z,24.83
2022-10-29T22:01:34.863Z,25.73
2022-10-29T22:04:03.839Z,25.83
2022-10-29T22:06:30.596Z,24.30
2022-10-29T22:08:58.545Z,23.50
2022-10-29T22:11:25.920Z,23.33
2022-10-29T22:13:53.258Z,22.47
2022-10-29T22:16:20.507Z,22.77
2022-10-29T22:18:47.354Z,21.40
2022-10-29T22:21:16.481Z,21.83
2022-10-29T22:23:53.013Z,22.10
2022-10-29T22:26:23.135Z,22.40
2022-10-29T22:28:50.234Z,21.37
2022-10-29T22:31:23.175Z,21.27
2022-10-29T22:33:52.596Z,21.83
2022-10-29T22:36:24.340Z,20.63
2022-10-29T22:38:55.145Z,21.73
2022-10-29T22:41:21.998Z,20.73
2022-10-29T22:43:48.780Z,22.10
2022-10-29T22:46:16.196Z,20.40
2022-10-29T22:48:45.787Z,20.73
2022-10-29T22:51:25.688Z,20.47
2022-10-29T22:53:55.265Z,19.27
2022-10-29T22:56:25.845Z,19.40
2022-10-29T22:58:52.682Z,19.80
2022-10-29T23:01:24.110Z,19.73
2022-10-29T23:03:53.614Z,18.40
2022-10-29T23:06:25.724Z,19.23
2022-10-29T23:08:55.839Z,18.87
2022-10-29T23:11:27.137Z,19.13
2022-10-29T23:14:00.028Z,18.20
2022-10-29T23:16:30.770Z,18.03
2022-10-29T23:18:59.639Z,16.93
2022-10-29T23:21:26.470Z,18.20
2022-10-29T23:23:53.268Z,17.63
2022-10-29T23:26:20.717Z,18.13
2022-10-29T23:28:47.569Z,17.57
2022-10-29T23:31:19.672Z,18.13
2022-10-29T23:33:47.973Z,17.57
2022-10-29T23:36:17.718Z,17.37
2022-10-29T23:38:44.868Z,16.30
2022-10-29T23:41:14.922Z,17.27
2022-10-29T23:43:41.635Z,17.30
2022-10-29T23:46:08.418Z,16.87
2022-10-29T23:48:37.343Z,16.77
2022-10-29T23:51:04.272Z,17.37
2022-10-29T23:53:31.092Z,16.63
2022-10-29T23:55:57.834Z,17.23
2022-10-29T23:58:25.190Z,16.33
